CheckWX is a tool to help pilots better visualize weather data.  It is not intended as a substitute for an official pre-flight weather briefing.

06:37:34 UTC

KGWO TAF
Greenwood-Leflore Airport
Greenwood, Mississippi, USA
KGWO 260529Z 2606/2706 19004KT P6SM BKN150 FM261400 23008KT P6SM FEW040 SCT250

Jun-26@
06:00 UTC

Jun-26 @ 06:00 UTC

Jun-26@
14:00 UTC

Jun-26 @ 14:00 UTC

KGWO 260529Z 2606/2706 19004KT P6SM BKN150
Wind
  • 190° at 4 KTS
Cloud Levels
  • Broken at 15,000' AGL

Jun-26@
14:00 UTC

Jun-26 @ 14:00 UTC

Jun-27@
06:00 UTC

Jun-27 @ 06:00 UTC

FM261400 23008KT P6SM FEW040 SCT250

From

From Standard forecast or significant change

Wind
  • 230° at 8 KTS
Cloud Levels
  • Few at 4,000' AGL
  • Scattered at 25,000' AGL